Create Tblcommutelog Verified Points Advance Search
| # | Trip ID | Id Commuter | Trip Date | Trip Num | Current Lat | Current Lng | Delta Distance | Current Time | Activity | Activity Confidence | Current Speed | |
|---|---|---|---|---|---|---|---|---|---|---|---|---|
| 73201 | 250812_773187_16479639_0830 | 773187 | (not set) | (not set) | 38.916969031185 | -77.029295138823 | 0.4199 | 2025-08-12 08:36:47 | on_bicycle | 100 | 0 | |
| 73202 | 250812_698742_16447752_0835 | 698742 | (not set) | (not set) | 38.803498573173 | -77.183985351342 | 0.9173 | 2025-08-12 08:36:48 | in_vehicle | 100 | 6.0037372482051 | |
| 73203 | 250812_784208_16509837_0833 | 784208 | (not set) | (not set) | 38.748695561832 | -77.13632777745 | 0.3361 | 2025-08-12 08:36:48 | in_vehicle | 100 | 5.46281974483 | |
| 73204 | 250812_780809_16496249_0756 | 780809 | (not set) | (not set) | 38.883752557383 | -77.150527034819 | 16.9685 | 2025-08-12 08:36:50 | in_vehicle | 100 | 7.6801344694091 | |
| 73205 | 250812_761648_16500693_0819 | 761648 | (not set) | (not set) | 38.928843015959 | -76.994990170173 | 2.7713 | 2025-08-12 08:36:50 | on_bicycle | 100 | 4.3005176714619 | |
| 73206 | 250812_669170_16500693_0741 | 669170 | (not set) | (not set) | 38.94290681021 | -76.998587858347 | 25.3225 | 2025-08-12 08:36:51 | in_vehicle | 100 | 11.122336763615 | |
| 73207 | 250812_784208_16509837_0833 | 784208 | (not set) | (not set) | 38.749015754076 | -77.13645487579 | 0.3592 | 2025-08-12 08:36:51 | in_vehicle | 100 | 5.5298756336781 | |
| 73208 | 250812_769783_16441814_0742 | 769783 | (not set) | (not set) | 38.951692222654 | -77.002851208744 | 10.1291 | 2025-08-12 08:36:09 | in_vehicle | 100 | 0.31739787388128 | |
| 73209 | 250812_786593_16511726_0827 | 786593 | (not set) | (not set) | 38.900743883514 | -76.960460004391 | 1.9253 | 2025-08-12 08:36:54 | unknown | 100 | 4.4838037676469 | |
| 73210 | 250812_782588_16513676_0800 | 782588 | (not set) | (not set) | 38.898044440512 | -77.007328863492 | 14.6977 | 2025-08-12 08:36:54 | on_foot | 100 | -0.44703925898772 | |
| 73211 | 250812_782588_16513676_0800 | 782588 | (not set) | (not set) | 38.898044440512 | -77.007328863492 | 14.6977 | 2025-08-12 08:36:54 | on_foot | 100 | -0.44703925898772 | |
| 73212 | 250812_769783_16441814_0742 | 769783 | (not set) | (not set) | 38.951667537949 | -77.002885155451 | 10.1291 | 2025-08-12 08:36:11 | in_vehicle | 100 | 0.31739787388128 | |
| 73213 | 250812_785765_16514290_0829 | 785765 | (not set) | (not set) | 39.6112936601 | -77.703225701112 | 3.2941 | 2025-08-12 08:36:55 | in_vehicle | 100 | 6.2540792332383 | |
| 73214 | 250812_786561_16501483_0828 | 786561 | (not set) | (not set) | 38.890677018262 | -77.000581673992 | 1.1374 | 2025-08-12 08:36:55 | in_vehicle | 100 | 2.9236367537797 | |
| 73215 | 250812_765519_16479164_0814 | 765519 | (not set) | (not set) | 38.851772130138 | -77.043489180498 | 4.8363 | 2025-08-12 08:36:56 | in_vehicle | 100 | 7.1660393215732 | |
| 73216 | 250812_784414_16503658_0820 | 784414 | (not set) | (not set) | 38.807440444607 | -77.059630279521 | 3.9316 | 2025-08-12 08:36:57 | in_vehicle | 100 | 4.7967312489383 | |
| 73217 | 250812_782405_16511739_0706 | 782405 | (not set) | (not set) | 39.224087905494 | -76.709735965235 | 34.6098 | 2025-08-12 08:36:57 | in_vehicle | 100 | 7.0811018623656 | |
| 73218 | 250812_782405_16511739_0705 | 782405 | (not set) | (not set) | 39.224087905494 | -76.709735965235 | 34.6098 | 2025-08-12 08:36:57 | in_vehicle | 100 | 7.0811018623656 | |
| 73219 | 250812_782405_16511739_0705 | 782405 | (not set) | (not set) | 39.224087905494 | -76.709735965235 | 34.6098 | 2025-08-12 08:36:57 | in_vehicle | 100 | 7.0811018623656 | |
| 73220 | 250812_785550_16514192_0809 | 785550 | (not set) | (not set) | 38.997300442766 | -77.099594209387 | 5.2915 | 2025-08-12 08:36:53 | unknown | 100 | -0.44703925898772 |